createdAt,value
2023-04-14T00:00:48.132Z,25.13
2023-04-14T00:03:16.794Z,25.60
2023-04-14T00:05:44.941Z,25.70
2023-04-14T00:08:12.927Z,24.37
2023-04-14T00:10:42.291Z,24.33
2023-04-14T00:13:10.398Z,24.07
2023-04-14T00:15:38.523Z,24.57
2023-04-14T00:18:06.714Z,25.13
2023-04-14T00:20:34.806Z,24.23
2023-04-14T00:23:02.789Z,25.83
2023-04-14T00:25:30.742Z,26.83
2023-04-14T00:28:00.148Z,26.57
2023-04-14T00:30:28.213Z,26.50
2023-04-14T00:32:56.229Z,27.47
2023-04-14T00:35:25.589Z,27.17
2023-04-14T00:37:53.568Z,26.63
2023-04-14T00:40:21.649Z,25.00
2023-04-14T00:42:50.624Z,27.60
2023-04-14T00:45:19.955Z,25.80
2023-04-14T00:47:50.721Z,25.67
2023-04-14T00:50:20.682Z,25.47
2023-04-14T00:52:50.606Z,24.43
2023-04-14T00:55:21.119Z,24.30
2023-04-14T00:57:49.767Z,23.97
2023-04-14T01:00:19.783Z,24.67
2023-04-14T01:02:48.034Z,24.00
2023-04-14T01:05:16.472Z,25.97
2023-04-14T01:07:45.151Z,25.87
2023-04-14T01:10:13.578Z,25.77
2023-04-14T01:13:01.890Z,28.20
2023-04-14T01:15:36.726Z,26.10
2023-04-14T01:18:11.320Z,24.80
2023-04-14T01:20:44.683Z,25.93
2023-04-14T01:23:16.943Z,26.27
2023-04-14T01:26:18.099Z,26.13
2023-04-14T01:29:22.677Z,27.13
2023-04-14T01:31:56.315Z,27.27
2023-04-14T01:34:32.489Z,27.83
2023-04-14T01:37:06.327Z,26.13
2023-04-14T01:39:37.652Z,26.40
2023-04-14T01:42:10.074Z,26.70
2023-04-14T01:44:40.380Z,24.90
2023-04-14T01:47:13.820Z,25.93
2023-04-14T01:49:43.405Z,24.20
2023-04-14T01:52:12.553Z,26.77
2023-04-14T01:54:43.669Z,25.33
2023-04-14T01:57:13.885Z,24.80
2023-04-14T01:59:43.606Z,24.30
2023-04-14T02:02:14.923Z,24.70
2023-04-14T02:04:44.218Z,24.07
2023-04-14T02:07:13.560Z,24.27
2023-04-14T02:09:44.321Z,25.30
2023-04-14T02:12:13.440Z,25.17
2023-04-14T02:14:43.326Z,27.33
2023-04-14T02:17:13.646Z,23.50
2023-04-14T02:19:44.424Z,23.80
2023-04-14T02:22:12.645Z,23.50
2023-04-14T02:24:40.809Z,24.53
2023-04-14T02:27:12.751Z,22.90
2023-04-14T02:29:44.505Z,24.40
2023-04-14T02:32:20.954Z,24.67
2023-04-14T02:34:53.446Z,24.97
2023-04-14T02:37:25.899Z,27.27
2023-04-14T02:40:00.055Z,28.70
2023-04-14T02:42:29.680Z,29.53
2023-04-14T02:45:03.551Z,28.10
2023-04-14T02:47:36.685Z,27.63
2023-04-14T02:50:09.149Z,28.43
2023-04-14T02:52:38.689Z,26.73
2023-04-14T02:55:08.860Z,29.87
2023-04-14T02:57:37.268Z,32.47
2023-04-14T03:00:06.546Z,31.53
2023-04-14T03:02:37.487Z,33.60
2023-04-14T03:05:07.317Z,32.80
2023-04-14T03:07:36.320Z,31.80
2023-04-14T03:10:04.998Z,32.53
2023-04-14T03:12:36.012Z,33.07
2023-04-14T03:15:04.495Z,32.27
2023-04-14T03:17:33.829Z,33.50
2023-04-14T03:20:03.695Z,32.97
2023-04-14T03:22:34.330Z,31.90
2023-04-14T03:25:02.342Z,35.67
2023-04-14T03:27:31.733Z,34.73
2023-04-14T03:30:04.325Z,33.47
2023-04-14T03:32:36.095Z,33.03
2023-04-14T03:35:07.069Z,33.50
2023-04-14T03:37:39.083Z,30.53
2023-04-14T03:40:11.142Z,32.00
2023-04-14T03:42:44.646Z,30.30
2023-04-14T03:45:13.125Z,29.37
2023-04-14T03:47:41.127Z,29.23
2023-04-14T03:50:15.476Z,29.43
2023-04-14T03:52:46.994Z,29.80
2023-04-14T03:55:18.863Z,28.47
2023-04-14T03:57:48.383Z,28.03
2023-04-14T04:00:17.507Z,27.20
2023-04-14T04:02:46.252Z,28.67
2023-04-14T04:05:16.726Z,26.50
2023-04-14T04:07:45.864Z,26.03
2023-04-14T04:10:16.410Z,27.93
2023-04-14T04:12:45.245Z,27.33
2023-04-14T04:15:13.395Z,25.43
2023-04-14T04:17:42.619Z,24.60
2023-04-14T04:20:15.790Z,25.20
2023-04-14T04:22:47.400Z,25.30
2023-04-14T04:25:16.010Z,24.27
2023-04-14T04:27:44.175Z,23.80
2023-04-14T04:30:14.236Z,24.47
2023-04-14T04:32:42.321Z,23.13
2023-04-14T04:35:11.557Z,24.23
2023-04-14T04:37:43.059Z,22.20
2023-04-14T04:40:12.340Z,23.60
2023-04-14T04:42:43.974Z,24.57
2023-04-14T04:45:12.511Z,22.17
2023-04-14T04:47:40.490Z,22.73
2023-04-14T04:50:09.325Z,23.10
2023-04-14T04:52:37.325Z,23.40
2023-04-14T04:55:08.253Z,23.80
2023-04-14T04:57:36.244Z,23.07
2023-04-14T05:00:05.426Z,22.67
2023-04-14T05:02:33.503Z,22.80
2023-04-14T05:05:01.792Z,23.03
2023-04-14T05:07:29.849Z,23.60
2023-04-14T05:09:57.841Z,24.47
2023-04-14T05:12:27.161Z,22.33
2023-04-14T05:14:55.088Z,22.83
2023-04-14T05:17:23.263Z,22.40
2023-04-14T05:19:51.427Z,21.73
2023-04-14T05:22:19.369Z,21.80
2023-04-14T05:24:50.552Z,22.67
2023-04-14T05:27:18.772Z,22.83
2023-04-14T05:29:48.138Z,23.33
2023-04-14T05:32:16.618Z,23.17
2023-04-14T05:34:44.579Z,21.87
2023-04-14T05:37:12.607Z,21.60
2023-04-14T05:39:40.636Z,22.60
2023-04-14T05:42:08.596Z,23.60
2023-04-14T05:44:36.571Z,24.40
2023-04-14T05:47:06.216Z,23.67
2023-04-14T05:49:34.276Z,27.10
2023-04-14T05:52:02.428Z,28.53
2023-04-14T05:54:30.581Z,27.67
2023-04-14T05:56:58.582Z,27.30
2023-04-14T05:59:27.338Z,28.53
2023-04-14T06:01:55.341Z,30.03
2023-04-14T06:04:24.913Z,25.57
2023-04-14T06:06:58.631Z,27.00
2023-04-14T06:09:26.654Z,28.23
2023-04-14T06:11:54.621Z,27.43
2023-04-14T06:14:22.634Z,26.67
2023-04-14T06:16:51.331Z,27.17
2023-04-14T06:19:19.494Z,29.20
2023-04-14T06:22:17.723Z,27.07
2023-04-14T06:24:45.999Z,28.80
2023-04-14T06:27:14.502Z,27.53
2023-04-14T06:29:42.611Z,27.87
2023-04-14T06:32:10.708Z,28.83
2023-04-14T06:34:38.827Z,29.70
2023-04-14T06:37:08.290Z,28.97
2023-04-14T06:39:36.333Z,29.23
2023-04-14T06:42:04.366Z,28.83
2023-04-14T06:44:32.334Z,27.90
2023-04-14T06:47:00.397Z,29.00
2023-04-14T06:49:28.399Z,29.00
2023-04-14T06:51:56.372Z,28.20
2023-04-14T06:54:25.796Z,28.70
2023-04-14T06:56:53.832Z,28.90
2023-04-14T06:59:26.054Z,28.90
2023-04-14T07:01:54.120Z,28.20
2023-04-14T07:04:23.068Z,28.23
2023-04-14T07:06:52.105Z,29.30
2023-04-14T07:09:21.194Z,27.80
2023-04-14T07:11:53.603Z,29.37
2023-04-14T07:14:21.851Z,26.93
2023-04-14T07:16:49.996Z,28.97
2023-04-14T07:19:18.052Z,28.02
2023-04-14T07:21:46.386Z,27.07
2023-04-14T07:24:15.680Z,27.58
2023-04-14T07:26:44.429Z,27.27
2023-04-14T07:29:13.991Z,27.17
2023-04-14T07:31:42.760Z,27.07
2023-04-14T07:34:11.001Z,26.20
2023-04-14T07:36:39.018Z,26.10
2023-04-14T07:39:07.010Z,27.53
2023-04-14T07:41:35.023Z,26.83
2023-04-14T07:44:03.434Z,27.27
2023-04-14T07:46:33.282Z,25.63
2023-04-14T07:49:01.270Z,25.03
2023-04-14T07:51:29.347Z,26.53
2023-04-14T07:53:57.446Z,24.97
2023-04-14T07:56:25.442Z,26.33
2023-04-14T07:58:53.370Z,23.70
2023-04-14T08:01:21.423Z,23.83
2023-04-14T08:03:50.919Z,22.20
2023-04-14T08:06:19.088Z,19.60
2023-04-14T08:08:47.879Z,22.60
2023-04-14T08:11:16.177Z,20.48
2023-04-14T08:13:44.683Z,20.52
2023-04-14T08:16:12.903Z,19.33
2023-04-14T08:18:41.537Z,18.80
2023-04-14T08:21:10.964Z,18.52
2023-04-14T08:23:39.108Z,18.13
2023-04-14T08:26:07.387Z,18.38
2023-04-14T08:28:35.725Z,17.45
2023-04-14T08:31:03.699Z,15.50
2023-04-14T08:33:31.688Z,16.20
2023-04-14T08:36:00.781Z,16.48
2023-04-14T08:38:30.441Z,16.15
2023-04-14T08:40:59.719Z,15.55
2023-04-14T08:43:28.510Z,16.38
2023-04-14T08:45:58.548Z,16.10
2023-04-14T08:48:32.020Z,15.07
2023-04-14T08:51:06.420Z,14.75
2023-04-14T08:53:42.866Z,14.98
2023-04-14T08:56:13.287Z,15.27
2023-04-14T08:58:41.868Z,15.23
2023-04-14T09:01:10.329Z,15.27
2023-04-14T09:03:39.418Z,15.60
2023-04-14T09:06:07.776Z,14.77
2023-04-14T09:08:37.389Z,14.30
2023-04-14T09:11:05.733Z,14.10
2023-04-14T09:13:33.854Z,13.55
2023-04-14T09:16:02.606Z,13.65
2023-04-14T09:18:31.629Z,13.52
2023-04-14T09:21:50.856Z,12.18
2023-04-14T09:23:51.984Z,11.95
2023-04-14T09:26:19.969Z,11.40
2023-04-14T09:28:47.963Z,12.55
2023-04-14T09:31:16.055Z,11.25
2023-04-14T09:33:45.888Z,10.85
2023-04-14T09:36:20.457Z,11.18
2023-04-14T09:38:51.334Z,11.23
2023-04-14T09:41:22.881Z,10.32
2023-04-14T09:43:52.763Z,9.75
2023-04-14T09:46:21.050Z,8.93
2023-04-14T09:48:53.493Z,8.60
2023-04-14T09:51:28.386Z,8.25
2023-04-14T09:54:02.535Z,8.85
2023-04-14T09:57:06.315Z,7.78
2023-04-14T09:59:35.439Z,7.95
2023-04-14T10:02:06.409Z,7.50
2023-04-14T10:07:30.570Z,6.95
2023-04-14T10:09:58.617Z,6.28
2023-04-14T10:12:27.982Z,6.15
2023-04-14T10:14:56.174Z,6.57
2023-04-14T10:17:24.348Z,6.70
2023-04-14T10:19:52.836Z,6.20
2023-04-14T10:22:22.062Z,6.38
2023-04-14T10:24:52.262Z,6.60
2023-04-14T10:27:20.657Z,6.93
2023-04-14T10:29:50.198Z,6.70
2023-04-14T10:32:19.335Z,6.45
2023-04-14T10:35:01.171Z,6.15
2023-04-14T10:37:29.275Z,6.60
2023-04-14T10:39:58.471Z,6.60
2023-04-14T10:42:27.085Z,6.60
2023-04-14T10:45:08.131Z,7.28
2023-04-14T10:47:40.878Z,7.07
2023-04-14T10:50:14.215Z,7.18
2023-04-14T10:52:51.015Z,7.00
2023-04-14T10:55:23.166Z,7.35
2023-04-14T10:57:51.401Z,7.57
2023-04-14T11:00:26.365Z,7.25
2023-04-14T11:03:04.832Z,7.20
2023-04-14T11:05:34.667Z,6.85
2023-04-14T11:08:13.394Z,7.95
2023-04-14T11:10:42.796Z,7.38
2023-04-14T11:13:13.170Z,6.68
2023-04-14T11:15:50.748Z,6.90
2023-04-14T11:18:32.034Z,6.53
2023-04-14T11:21:04.337Z,6.70
2023-04-14T11:23:32.607Z,6.32
2023-04-14T11:26:01.410Z,6.70
2023-04-14T11:28:30.756Z,6.35
2023-04-14T11:31:01.391Z,6.75
2023-04-14T11:33:30.713Z,6.40
2023-04-14T11:35:59.896Z,6.53
2023-04-14T11:38:28.433Z,6.60
2023-04-14T11:40:57.400Z,6.20
2023-04-14T11:43:26.103Z,6.28
2023-04-14T11:45:54.837Z,6.72
2023-04-14T11:48:24.329Z,6.43
2023-04-14T11:50:52.267Z,6.63
2023-04-14T11:53:21.186Z,6.43
2023-04-14T11:55:50.727Z,5.90
2023-04-14T11:58:23.867Z,6.20
2023-04-14T12:00:55.081Z,5.60
2023-04-14T12:03:27.871Z,5.82
2023-04-14T12:05:58.475Z,6.45
2023-04-14T12:08:27.059Z,9.07
2023-04-14T12:10:56.316Z,6.32
2023-04-14T12:13:26.504Z,5.72
2023-04-14T12:15:55.275Z,6.07
2023-04-14T12:18:23.614Z,6.07
2023-04-14T12:20:55.836Z,5.93
2023-04-14T12:23:25.681Z,5.60
2023-04-14T12:25:53.861Z,5.75
2023-04-14T12:28:27.738Z,5.35
2023-04-14T12:30:59.235Z,6.05
2023-04-14T12:33:28.738Z,6.00
2023-04-14T12:36:04.791Z,6.60
2023-04-14T12:38:32.992Z,6.47
2023-04-14T12:41:01.635Z,6.35
2023-04-14T12:43:31.457Z,6.20
2023-04-14T12:45:59.861Z,6.65
2023-04-14T12:48:45.858Z,5.95
2023-04-14T12:51:17.491Z,6.45
2023-04-14T12:53:46.892Z,6.32
2023-04-14T12:56:16.582Z,6.25
2023-04-14T12:58:58.680Z,6.85
2023-04-14T13:01:26.836Z,6.78
2023-04-14T13:03:56.079Z,6.68
2023-04-14T13:06:26.440Z,6.57
2023-04-14T13:08:56.075Z,6.85
2023-04-14T13:11:25.142Z,6.40
2023-04-14T13:13:54.437Z,6.13
2023-04-14T13:16:22.893Z,5.88
2023-04-14T13:18:54.639Z,6.65
2023-04-14T13:21:22.578Z,7.22
2023-04-14T13:23:51.902Z,6.57
2023-04-14T13:26:19.923Z,7.03
2023-04-14T13:28:50.344Z,6.47
2023-04-14T13:31:19.194Z,6.78
2023-04-14T13:33:47.249Z,6.40
2023-04-14T13:36:15.688Z,6.75
2023-04-14T13:38:43.789Z,6.45
2023-04-14T13:41:15.330Z,7.00
2023-04-14T13:43:43.356Z,6.68
2023-04-14T13:46:11.392Z,6.47
2023-04-14T13:48:39.490Z,6.85
2023-04-14T13:51:07.524Z,6.40
2023-04-14T13:53:35.497Z,6.43
2023-04-14T13:56:03.606Z,7.00
2023-04-14T13:58:33.263Z,6.55
2023-04-14T14:01:10.602Z,6.72
2023-04-14T14:03:40.691Z,6.35
2023-04-14T14:06:08.804Z,7.13
2023-04-14T14:08:37.945Z,7.57
2023-04-14T14:11:06.852Z,7.50
2023-04-14T14:13:38.650Z,7.38
2023-04-14T14:16:07.365Z,7.30
2023-04-14T14:18:36.726Z,7.40
2023-04-14T14:21:05.296Z,7.50
2023-04-14T14:23:33.306Z,7.60
2023-04-14T14:26:01.324Z,7.22
2023-04-14T14:28:29.296Z,7.68
2023-04-14T14:30:58.687Z,8.10
2023-04-14T14:33:26.669Z,7.75
2023-04-14T14:35:55.245Z,8.18
2023-04-14T14:38:23.176Z,7.85
2023-04-14T14:40:51.414Z,7.80
2023-04-14T14:43:19.365Z,7.03
2023-04-14T14:45:47.426Z,7.43
2023-04-14T14:48:16.794Z,9.45
2023-04-14T14:50:45.066Z,9.50
2023-04-14T14:53:13.024Z,7.03
2023-04-14T14:55:41.009Z,8.07
2023-04-14T14:58:09.574Z,12.70
2023-04-14T15:00:37.571Z,15.02
2023-04-14T15:03:06.359Z,12.45
2023-04-14T15:05:35.994Z,14.10
2023-04-14T15:08:04.343Z,9.63
2023-04-14T15:10:32.313Z,11.38
2023-04-14T15:13:00.275Z,8.20
2023-04-14T15:15:29.051Z,7.80
2023-04-14T15:17:57.756Z,8.40
2023-04-14T15:20:26.081Z,8.00
2023-04-14T15:22:55.557Z,8.40
2023-04-14T15:25:23.695Z,8.20
2023-04-14T15:27:52.592Z,8.02
2023-04-14T15:30:23.587Z,8.77
2023-04-14T15:32:51.717Z,7.50
2023-04-14T15:35:19.765Z,7.70
2023-04-14T15:37:47.848Z,7.80
2023-04-14T15:40:17.380Z,8.02
2023-04-14T15:42:45.388Z,7.65
2023-04-14T15:45:14.567Z,7.47
2023-04-14T15:47:42.572Z,8.30
2023-04-14T15:50:12.872Z,7.38
2023-04-14T15:52:46.616Z,8.20
2023-04-14T15:55:14.626Z,8.20
2023-04-14T15:57:43.911Z,7.53
2023-04-14T16:00:13.060Z,7.10
2023-04-14T16:02:42.092Z,8.10
2023-04-14T16:05:10.696Z,7.70
2023-04-14T16:07:38.735Z,7.45
2023-04-14T16:10:08.562Z,7.72
2023-04-14T16:12:36.774Z,7.68
2023-04-14T16:15:08.062Z,7.80
2023-04-14T16:17:36.461Z,9.25
2023-04-14T16:20:04.654Z,8.65
2023-04-14T16:22:32.606Z,7.55
2023-04-14T16:25:00.685Z,7.60
2023-04-14T16:27:29.375Z,7.07
2023-04-14T16:29:57.475Z,7.30
2023-04-14T16:32:26.889Z,7.78
2023-04-14T16:34:54.901Z,6.93
2023-04-14T16:37:25.754Z,7.50
2023-04-14T16:39:56.024Z,7.25
2023-04-14T16:42:25.109Z,8.20
2023-04-14T16:44:53.549Z,8.70
2023-04-14T16:47:22.037Z,8.38
2023-04-14T16:49:51.744Z,7.57
2023-04-14T16:52:20.191Z,8.47
2023-04-14T16:54:48.177Z,8.10
2023-04-14T16:57:16.482Z,8.87
2023-04-14T16:59:46.217Z,8.50
2023-04-14T17:02:14.325Z,8.40
2023-04-14T17:04:42.649Z,8.80
2023-04-14T17:07:12.523Z,9.03
2023-04-14T17:09:40.489Z,8.97
2023-04-14T17:12:08.654Z,8.90
2023-04-14T17:14:37.264Z,8.73
2023-04-14T17:17:05.474Z,9.43
2023-04-14T17:19:34.234Z,9.00
2023-04-14T17:22:02.206Z,9.70
2023-04-14T17:24:31.544Z,9.45
2023-04-14T17:27:00.562Z,10.10
2023-04-14T17:29:29.006Z,11.43
2023-04-14T17:31:57.127Z,10.13
2023-04-14T17:34:25.603Z,10.55
2023-04-14T17:36:53.579Z,12.27
2023-04-14T17:39:26.685Z,13.27
2023-04-14T17:41:58.059Z,12.30
2023-04-14T17:44:32.576Z,11.50
2023-04-14T17:47:03.043Z,11.20
2023-04-14T17:49:31.517Z,12.05
2023-04-14T17:51:59.642Z,12.50
2023-04-14T17:54:27.638Z,12.00
2023-04-14T17:56:57.677Z,12.87
2023-04-14T17:59:26.015Z,11.60
2023-04-14T18:01:54.168Z,12.07
2023-04-14T18:04:22.444Z,13.02
2023-04-14T18:06:51.389Z,11.93
2023-04-14T18:09:19.357Z,13.60
2023-04-14T18:11:47.377Z,12.23
2023-04-14T18:14:16.712Z,12.87
2023-04-14T18:16:44.838Z,13.57
2023-04-14T18:19:12.940Z,13.17
2023-04-14T18:21:42.218Z,13.43
2023-04-14T18:26:43.639Z,12.20
2023-04-14T18:29:12.093Z,12.40
2023-04-14T18:31:42.711Z,11.30
2023-04-14T18:34:12.602Z,12.10
2023-04-14T18:36:40.632Z,12.30
2023-04-14T18:39:09.173Z,11.67
2023-04-14T18:41:37.200Z,11.50
2023-04-14T18:44:05.557Z,11.50
2023-04-14T18:46:33.642Z,11.53
2023-04-14T18:49:03.483Z,11.70
2023-04-14T18:51:32.526Z,12.23
2023-04-14T18:54:00.732Z,11.27
2023-04-14T18:56:29.052Z,12.10
2023-04-14T18:58:57.645Z,11.70
2023-04-14T19:01:25.692Z,12.05
2023-04-14T19:03:54.499Z,12.57
2023-04-14T19:06:23.958Z,12.93
2023-04-14T19:08:51.998Z,11.80
2023-04-14T19:11:20.688Z,12.50
2023-04-14T19:13:48.715Z,11.43
2023-04-14T19:16:17.170Z,13.10
2023-04-14T19:18:45.324Z,12.47
2023-04-14T19:21:13.346Z,12.17
2023-04-14T19:23:43.172Z,11.53
2023-04-14T19:26:11.603Z,11.43
2023-04-14T19:28:42.344Z,12.00
2023-04-14T19:31:10.422Z,12.00
2023-04-14T19:33:41.721Z,12.50
2023-04-14T19:36:14.187Z,11.33
2023-04-14T19:38:44.112Z,11.30
2023-04-14T19:41:12.605Z,12.10
2023-04-14T19:43:40.655Z,13.37
2023-04-14T19:46:10.489Z,12.90
2023-04-14T19:48:39.008Z,12.73
2023-04-14T19:51:07.026Z,12.27
2023-04-14T19:53:35.051Z,12.30
2023-04-14T19:56:05.735Z,12.10
2023-04-14T19:58:34.001Z,12.67
2023-04-14T20:01:02.039Z,12.47
2023-04-14T20:03:31.600Z,12.90
2023-04-14T20:06:02.017Z,12.73
2023-04-14T20:08:30.583Z,12.73
2023-04-14T20:10:58.608Z,12.43
2023-04-14T20:13:30.693Z,12.40
2023-04-14T20:15:58.973Z,13.57
2023-04-14T20:18:28.009Z,12.80
2023-04-14T20:20:56.578Z,12.60
2023-04-14T20:23:24.643Z,12.70
2023-04-14T20:25:54.088Z,13.80
2023-04-14T20:28:25.745Z,12.70
2023-04-14T20:30:55.988Z,13.30
2023-04-14T20:33:24.703Z,12.97
2023-04-14T20:35:54.010Z,13.47
2023-04-14T20:38:22.501Z,13.10
2023-04-14T20:40:50.555Z,13.67
2023-04-14T20:43:18.561Z,13.10
2023-04-14T20:45:49.876Z,13.80
2023-04-14T20:48:19.596Z,14.30
2023-04-14T20:50:49.718Z,14.47
2023-04-14T20:53:18.026Z,14.87
2023-04-14T20:55:46.107Z,14.83
2023-04-14T20:58:14.252Z,14.70
2023-04-14T21:00:42.215Z,13.73
2023-04-14T21:03:11.198Z,14.80
2023-04-14T21:05:40.742Z,15.13
2023-04-14T21:08:09.424Z,14.73
2023-04-14T21:11:15.596Z,15.87
2023-04-14T21:15:28.075Z,15.33
2023-04-14T21:16:14.752Z,13.97
2023-04-14T21:18:42.813Z,13.97
2023-04-14T21:21:13.058Z,13.67
2023-04-14T21:23:41.101Z,13.40
2023-04-14T21:26:09.176Z,13.20
2023-04-14T21:28:37.140Z,12.43
2023-04-14T21:31:05.531Z,11.80
2023-04-14T21:33:33.598Z,13.00
2023-04-14T21:36:01.880Z,12.37
2023-04-14T21:38:31.533Z,13.83
2023-04-14T21:40:59.475Z,12.77
2023-04-14T21:43:27.572Z,12.03
2023-04-14T21:45:56.386Z,11.70
2023-04-14T21:48:24.647Z,12.63
2023-04-14T21:50:52.656Z,13.23
2023-04-14T21:53:20.821Z,14.83
2023-04-14T21:56:09.269Z,15.97
2023-04-14T21:58:39.267Z,16.57
2023-04-14T22:01:09.675Z,15.60
2023-04-14T22:03:40.428Z,15.57
2023-04-14T22:06:10.024Z,15.60
2023-04-14T22:08:39.166Z,16.40
2023-04-14T22:11:08.526Z,14.23
2023-04-14T22:13:36.544Z,13.23
2023-04-14T22:16:05.251Z,13.93
2023-04-14T22:18:33.247Z,12.93
2023-04-14T22:21:01.539Z,12.40
2023-04-14T22:23:29.523Z,10.33
2023-04-14T22:25:57.518Z,9.30
2023-04-14T22:28:27.321Z,9.73
2023-04-14T22:30:55.366Z,9.13
2023-04-14T22:33:23.389Z,9.13
2023-04-14T22:35:51.457Z,8.77
2023-04-14T22:38:19.426Z,8.03
2023-04-14T22:40:49.265Z,8.10
2023-04-14T22:43:18.559Z,8.20
2023-04-14T22:45:48.297Z,8.10
2023-04-14T22:48:16.425Z,7.57
2023-04-14T22:50:44.402Z,7.40
2023-04-14T22:53:12.449Z,7.97
2023-04-14T22:55:40.495Z,8.03
2023-04-14T22:58:09.510Z,8.03
2023-04-14T23:00:37.476Z,8.30
2023-04-14T23:03:06.952Z,8.07
2023-04-14T23:05:35.106Z,7.90
2023-04-14T23:08:03.176Z,8.00
2023-04-14T23:10:31.259Z,7.93
2023-04-14T23:12:59.240Z,7.93
2023-04-14T23:15:27.587Z,7.83
2023-04-14T23:17:56.095Z,8.00
2023-04-14T23:20:25.558Z,8.07
2023-04-14T23:22:53.519Z,8.30
2023-04-14T23:25:22.493Z,8.00
2023-04-14T23:27:50.505Z,8.70
2023-04-14T23:30:19.374Z,8.50
2023-04-14T23:32:47.496Z,9.00
2023-04-14T23:35:15.683Z,8.13
2023-04-14T23:37:44.992Z,8.03
2023-04-14T23:40:14.305Z,8.30
2023-04-14T23:42:42.251Z,7.90
2023-04-14T23:45:10.913Z,8.00
2023-04-14T23:47:38.976Z,8.07
2023-04-14T23:50:08.545Z,7.83
2023-04-14T23:52:37.232Z,8.17
2023-04-14T23:55:07.086Z,8.30
2023-04-14T23:57:35.073Z,7.70
